sensor_id;sensor_type;location;lat;lon;timestamp;temperature;humidity
4985;DHT22;2509;49.902;8.600;2023-08-07T00:00:13;13.00;99.90
4985;DHT22;2509;49.902;8.600;2023-08-07T00:03:15;13.00;99.90
4985;DHT22;2509;49.902;8.600;2023-08-07T00:06:20;12.90;99.90
4985;DHT22;2509;49.902;8.600;2023-08-07T00:09:21;12.90;99.90
4985;DHT22;2509;49.902;8.600;2023-08-07T00:12:23;12.90;99.90
4985;DHT22;2509;49.902;8.600;2023-08-07T00:15:25;12.90;99.90
4985;DHT22;2509;49.902;8.600;2023-08-07T00:18:27;12.90;99.90
4985;DHT22;2509;49.902;8.600;2023-08-07T00:21:30;12.90;99.90
4985;DHT22;2509;49.902;8.600;2023-08-07T00:24:32;12.90;99.90
4985;DHT22;2509;49.902;8.600;2023-08-07T00:27:33;12.90;99.90
4985;DHT22;2509;49.902;8.600;2023-08-07T00:30:35;12.90;99.90
4985;DHT22;2509;49.902;8.600;2023-08-07T00:33:36;12.90;99.90
4985;DHT22;2509;49.902;8.600;2023-08-07T00:36:39;12.90;99.90
4985;DHT22;2509;49.902;8.600;2023-08-07T00:39:41;12.90;99.90
4985;DHT22;2509;49.902;8.600;2023-08-07T00:42:43;12.90;99.90
4985;DHT22;2509;49.902;8.600;2023-08-07T00:45:45;12.90;99.90
4985;DHT22;2509;49.902;8.600;2023-08-07T00:48:47;12.80;99.90
4985;DHT22;2509;49.902;8.600;2023-08-07T00:51:50;12.80;99.90
4985;DHT22;2509;49.902;8.600;2023-08-07T00:54:53;12.90;99.90
4985;DHT22;2509;49.902;8.600;2023-08-07T00:57:54;12.80;99.90
4985;DHT22;2509;49.902;8.600;2023-08-07T01:00:56;12.90;99.90
4985;DHT22;2509;49.902;8.600;2023-08-07T01:03:58;12.90;99.90
4985;DHT22;2509;49.902;8.600;2023-08-07T01:07:01;12.80;99.90
4985;DHT22;2509;49.902;8.600;2023-08-07T01:10:03;12.80;99.90
4985;DHT22;2509;49.902;8.600;2023-08-07T01:13:08;12.80;99.90
4985;DHT22;2509;49.902;8.600;2023-08-07T01:16:15;12.80;99.90
4985;DHT22;2509;49.902;8.600;2023-08-07T01:19:19;12.80;99.90
4985;DHT22;2509;49.902;8.600;2023-08-07T01:22:25;12.80;99.90
4985;DHT22;2509;49.902;8.600;2023-08-07T01:25:26;12.80;99.90
4985;DHT22;2509;49.902;8.600;2023-08-07T01:28:31;12.80;99.90
4985;DHT22;2509;49.902;8.600;2023-08-07T01:31:34;12.80;99.90
4985;DHT22;2509;49.902;8.600;2023-08-07T01:34:37;12.80;99.90
4985;DHT22;2509;49.902;8.600;2023-08-07T01:37:41;12.80;99.90
4985;DHT22;2509;49.902;8.600;2023-08-07T01:40:43;12.80;99.90
4985;DHT22;2509;49.902;8.600;2023-08-07T01:43:45;12.80;99.90
4985;DHT22;2509;49.902;8.600;2023-08-07T01:46:47;12.70;99.90
4985;DHT22;2509;49.902;8.600;2023-08-07T01:49:48;12.70;99.90
4985;DHT22;2509;49.902;8.600;2023-08-07T01:52:51;12.80;99.90
4985;DHT22;2509;49.902;8.600;2023-08-07T01:55:53;12.70;99.90
4985;DHT22;2509;49.902;8.600;2023-08-07T01:58:54;12.70;99.90
4985;DHT22;2509;49.902;8.600;2023-08-07T02:01:56;12.70;99.90
4985;DHT22;2509;49.902;8.600;2023-08-07T02:04:58;12.70;99.90
4985;DHT22;2509;49.902;8.600;2023-08-07T02:08:00;12.70;99.90
4985;DHT22;2509;49.902;8.600;2023-08-07T02:11:02;12.70;99.90
4985;DHT22;2509;49.902;8.600;2023-08-07T02:14:04;12.70;99.90
4985;DHT22;2509;49.902;8.600;2023-08-07T02:17:05;12.70;99.90
4985;DHT22;2509;49.902;8.600;2023-08-07T02:20:07;12.70;99.90
4985;DHT22;2509;49.902;8.600;2023-08-07T02:23:10;12.70;99.90
4985;DHT22;2509;49.902;8.600;2023-08-07T02:26:13;12.70;99.90
4985;DHT22;2509;49.902;8.600;2023-08-07T02:29:14;12.70;99.90
4985;DHT22;2509;49.902;8.600;2023-08-07T02:32:16;12.70;99.90
4985;DHT22;2509;49.902;8.600;2023-08-07T02:35:18;12.70;99.90
4985;DHT22;2509;49.902;8.600;2023-08-07T02:38:21;12.70;99.90
4985;DHT22;2509;49.902;8.600;2023-08-07T02:41:22;12.80;99.90
4985;DHT22;2509;49.902;8.600;2023-08-07T02:44:24;12.80;99.90
4985;DHT22;2509;49.902;8.600;2023-08-07T02:47:25;12.80;99.90
4985;DHT22;2509;49.902;8.600;2023-08-07T02:50:27;12.80;99.90
4985;DHT22;2509;49.902;8.600;2023-08-07T02:53:34;12.80;99.90
4985;DHT22;2509;49.902;8.600;2023-08-07T02:56:35;12.80;99.90
4985;DHT22;2509;49.902;8.600;2023-08-07T02:59:37;12.70;99.90
4985;DHT22;2509;49.902;8.600;2023-08-07T03:02:38;12.80;99.90
4985;DHT22;2509;49.902;8.600;2023-08-07T03:05:47;12.80;99.90
4985;DHT22;2509;49.902;8.600;2023-08-07T03:08:50;12.80;99.90
4985;DHT22;2509;49.902;8.600;2023-08-07T03:12:04;12.80;99.90
4985;DHT22;2509;49.902;8.600;2023-08-07T03:15:06;12.80;99.90
4985;DHT22;2509;49.902;8.600;2023-08-07T03:18:08;12.80;99.90
4985;DHT22;2509;49.902;8.600;2023-08-07T03:21:09;12.80;99.90
4985;DHT22;2509;49.902;8.600;2023-08-07T03:24:12;12.80;99.90
4985;DHT22;2509;49.902;8.600;2023-08-07T03:27:14;12.80;99.90
4985;DHT22;2509;49.902;8.600;2023-08-07T03:30:15;12.80;99.90
4985;DHT22;2509;49.902;8.600;2023-08-07T03:33:17;12.80;99.90
4985;DHT22;2509;49.902;8.600;2023-08-07T03:36:18;12.80;99.90
4985;DHT22;2509;49.902;8.600;2023-08-07T03:39:21;12.80;99.90
4985;DHT22;2509;49.902;8.600;2023-08-07T03:42:23;12.80;99.90
4985;DHT22;2509;49.902;8.600;2023-08-07T03:45:24;12.80;99.90
4985;DHT22;2509;49.902;8.600;2023-08-07T03:48:26;12.90;99.90
4985;DHT22;2509;49.902;8.600;2023-08-07T03:51:27;12.90;99.90
4985;DHT22;2509;49.902;8.600;2023-08-07T03:54:31;12.90;99.90
4985;DHT22;2509;49.902;8.600;2023-08-07T03:57:33;12.90;99.90
4985;DHT22;2509;49.902;8.600;2023-08-07T04:00:34;12.90;99.90
4985;DHT22;2509;49.902;8.600;2023-08-07T04:03:36;12.90;99.90
4985;DHT22;2509;49.902;8.600;2023-08-07T04:06:38;12.90;99.90
4985;DHT22;2509;49.902;8.600;2023-08-07T04:09:41;12.90;99.90
4985;DHT22;2509;49.902;8.600;2023-08-07T04:12:43;12.90;99.90
4985;DHT22;2509;49.902;8.600;2023-08-07T04:15:45;12.90;99.90
4985;DHT22;2509;49.902;8.600;2023-08-07T04:18:46;12.90;99.90
4985;DHT22;2509;49.902;8.600;2023-08-07T04:21:48;12.90;99.90
4985;DHT22;2509;49.902;8.600;2023-08-07T04:24:51;12.90;99.90
4985;DHT22;2509;49.902;8.600;2023-08-07T04:27:52;12.90;99.90
4985;DHT22;2509;49.902;8.600;2023-08-07T04:30:54;12.90;99.90
4985;DHT22;2509;49.902;8.600;2023-08-07T04:33:55;12.90;99.90
4985;DHT22;2509;49.902;8.600;2023-08-07T04:36:57;12.90;99.90
4985;DHT22;2509;49.902;8.600;2023-08-07T04:40:00;12.90;99.90
4985;DHT22;2509;49.902;8.600;2023-08-07T04:43:02;12.90;99.90
4985;DHT22;2509;49.902;8.600;2023-08-07T04:46:03;13.00;99.90
4985;DHT22;2509;49.902;8.600;2023-08-07T04:49:05;12.90;99.90
4985;DHT22;2509;49.902;8.600;2023-08-07T04:52:07;13.00;99.90
4985;DHT22;2509;49.902;8.600;2023-08-07T04:55:10;13.00;99.90
4985;DHT22;2509;49.902;8.600;2023-08-07T04:58:11;13.00;99.90
4985;DHT22;2509;49.902;8.600;2023-08-07T05:01:13;13.00;99.90
4985;DHT22;2509;49.902;8.600;2023-08-07T05:04:15;13.10;99.90
4985;DHT22;2509;49.902;8.600;2023-08-07T05:07:16;13.00;99.90
4985;DHT22;2509;49.902;8.600;2023-08-07T05:10:19;13.00;99.90
4985;DHT22;2509;49.902;8.600;2023-08-07T05:13:21;13.00;99.90
4985;DHT22;2509;49.902;8.600;2023-08-07T05:16:22;13.00;99.90
4985;DHT22;2509;49.902;8.600;2023-08-07T05:19:24;13.00;99.90
4985;DHT22;2509;49.902;8.600;2023-08-07T05:22:25;13.10;99.90
4985;DHT22;2509;49.902;8.600;2023-08-07T05:25:28;13.10;99.90
4985;DHT22;2509;49.902;8.600;2023-08-07T05:28:30;13.10;99.90
4985;DHT22;2509;49.902;8.600;2023-08-07T05:31:31;13.20;99.90
4985;DHT22;2509;49.902;8.600;2023-08-07T05:34:33;13.20;99.90
4985;DHT22;2509;49.902;8.600;2023-08-07T05:37:35;13.20;99.90
4985;DHT22;2509;49.902;8.600;2023-08-07T05:40:38;13.30;99.90
4985;DHT22;2509;49.902;8.600;2023-08-07T05:43:40;13.30;99.90
4985;DHT22;2509;49.902;8.600;2023-08-07T05:46:42;13.30;99.90
4985;DHT22;2509;49.902;8.600;2023-08-07T05:49:44;13.30;99.90
4985;DHT22;2509;49.902;8.600;2023-08-07T05:52:45;13.40;99.90
4985;DHT22;2509;49.902;8.600;2023-08-07T05:55:49;13.30;99.90
4985;DHT22;2509;49.902;8.600;2023-08-07T05:58:50;13.20;99.90
4985;DHT22;2509;49.902;8.600;2023-08-07T06:01:52;13.20;99.90
4985;DHT22;2509;49.902;8.600;2023-08-07T06:04:54;13.30;99.90
4985;DHT22;2509;49.902;8.600;2023-08-07T06:07:56;13.30;99.90
4985;DHT22;2509;49.902;8.600;2023-08-07T06:10:59;13.30;99.90
4985;DHT22;2509;49.902;8.600;2023-08-07T06:14:03;13.40;99.90
4985;DHT22;2509;49.902;8.600;2023-08-07T06:17:05;13.40;99.90
4985;DHT22;2509;49.902;8.600;2023-08-07T06:20:08;13.40;99.90
4985;DHT22;2509;49.902;8.600;2023-08-07T06:23:11;13.40;99.90
4985;DHT22;2509;49.902;8.600;2023-08-07T06:26:14;13.40;99.90
4985;DHT22;2509;49.902;8.600;2023-08-07T06:29:16;13.40;99.90
4985;DHT22;2509;49.902;8.600;2023-08-07T06:32:17;13.40;99.90
4985;DHT22;2509;49.902;8.600;2023-08-07T06:35:19;13.40;99.90
4985;DHT22;2509;49.902;8.600;2023-08-07T06:38:21;13.30;99.90
4985;DHT22;2509;49.902;8.600;2023-08-07T06:41:23;13.20;99.90
4985;DHT22;2509;49.902;8.600;2023-08-07T06:44:25;13.20;99.90
4985;DHT22;2509;49.902;8.600;2023-08-07T06:47:27;13.20;99.90
4985;DHT22;2509;49.902;8.600;2023-08-07T06:50:28;13.10;99.90
4985;DHT22;2509;49.902;8.600;2023-08-07T06:53:30;13.10;99.90
4985;DHT22;2509;49.902;8.600;2023-08-07T06:56:33;13.10;99.90
4985;DHT22;2509;49.902;8.600;2023-08-07T06:59:34;13.10;99.90
4985;DHT22;2509;49.902;8.600;2023-08-07T07:02:36;13.10;99.90
4985;DHT22;2509;49.902;8.600;2023-08-07T07:05:37;13.10;99.90
4985;DHT22;2509;49.902;8.600;2023-08-07T07:08:39;13.10;99.90
4985;DHT22;2509;49.902;8.600;2023-08-07T07:11:42;13.10;99.90
4985;DHT22;2509;49.902;8.600;2023-08-07T07:14:44;13.10;99.90
4985;DHT22;2509;49.902;8.600;2023-08-07T07:17:55;13.10;99.90
4985;DHT22;2509;49.902;8.600;2023-08-07T07:20:56;13.20;99.90
4985;DHT22;2509;49.902;8.600;2023-08-07T07:23:59;13.20;99.90
4985;DHT22;2509;49.902;8.600;2023-08-07T07:27:02;13.20;99.90
4985;DHT22;2509;49.902;8.600;2023-08-07T07:30:04;13.30;99.90
4985;DHT22;2509;49.902;8.600;2023-08-07T07:33:05;13.30;99.90
4985;DHT22;2509;49.902;8.600;2023-08-07T07:36:07;13.40;99.90
4985;DHT22;2509;49.902;8.600;2023-08-07T07:39:08;13.50;99.90
4985;DHT22;2509;49.902;8.600;2023-08-07T07:42:11;13.50;99.90
4985;DHT22;2509;49.902;8.600;2023-08-07T07:45:13;13.50;99.90
4985;DHT22;2509;49.902;8.600;2023-08-07T07:48:15;13.60;99.90
4985;DHT22;2509;49.902;8.600;2023-08-07T07:51:16;13.60;99.90
4985;DHT22;2509;49.902;8.600;2023-08-07T07:54:18;13.60;99.90
4985;DHT22;2509;49.902;8.600;2023-08-07T07:57:21;13.70;99.90
4985;DHT22;2509;49.902;8.600;2023-08-07T08:00:23;13.80;99.90
4985;DHT22;2509;49.902;8.600;2023-08-07T08:03:27;13.90;99.90
4985;DHT22;2509;49.902;8.600;2023-08-07T08:06:28;13.90;99.90
4985;DHT22;2509;49.902;8.600;2023-08-07T08:09:31;14.00;99.90
4985;DHT22;2509;49.902;8.600;2023-08-07T08:12:34;14.10;99.90
4985;DHT22;2509;49.902;8.600;2023-08-07T08:15:35;14.20;99.90
4985;DHT22;2509;49.902;8.600;2023-08-07T08:18:37;14.20;99.90
4985;DHT22;2509;49.902;8.600;2023-08-07T08:21:39;14.30;99.90
4985;DHT22;2509;49.902;8.600;2023-08-07T08:24:40;14.30;99.90
4985;DHT22;2509;49.902;8.600;2023-08-07T08:27:43;14.40;99.90
4985;DHT22;2509;49.902;8.600;2023-08-07T08:30:46;14.40;99.90
4985;DHT22;2509;49.902;8.600;2023-08-07T08:33:48;14.40;99.90
4985;DHT22;2509;49.902;8.600;2023-08-07T08:36:49;14.50;99.90
4985;DHT22;2509;49.902;8.600;2023-08-07T08:39:51;14.50;99.90
4985;DHT22;2509;49.902;8.600;2023-08-07T08:42:54;14.60;99.90
4985;DHT22;2509;49.902;8.600;2023-08-07T08:45:58;14.60;99.90
4985;DHT22;2509;49.902;8.600;2023-08-07T08:49:00;14.50;99.90
4985;DHT22;2509;49.902;8.600;2023-08-07T08:52:03;14.50;99.90
4985;DHT22;2509;49.902;8.600;2023-08-07T08:55:05;14.40;99.90
4985;DHT22;2509;49.902;8.600;2023-08-07T08:58:09;14.40;99.90
4985;DHT22;2509;49.902;8.600;2023-08-07T09:01:11;14.40;99.90
4985;DHT22;2509;49.902;8.600;2023-08-07T09:04:13;14.40;99.90
4985;DHT22;2509;49.902;8.600;2023-08-07T09:07:15;14.40;99.90
4985;DHT22;2509;49.902;8.600;2023-08-07T09:10:17;14.50;99.90
4985;DHT22;2509;49.902;8.600;2023-08-07T09:13:20;14.50;99.90
4985;DHT22;2509;49.902;8.600;2023-08-07T09:16:23;14.50;99.90
4985;DHT22;2509;49.902;8.600;2023-08-07T09:19:26;14.50;99.90
4985;DHT22;2509;49.902;8.600;2023-08-07T09:22:27;14.50;99.90
4985;DHT22;2509;49.902;8.600;2023-08-07T09:25:29;14.60;99.90
4985;DHT22;2509;49.902;8.600;2023-08-07T09:28:32;14.70;99.90
4985;DHT22;2509;49.902;8.600;2023-08-07T09:31:35;14.80;99.90
4985;DHT22;2509;49.902;8.600;2023-08-07T09:34:38;14.90;99.90
4985;DHT22;2509;49.902;8.600;2023-08-07T09:37:41;14.90;99.90
4985;DHT22;2509;49.902;8.600;2023-08-07T09:40:44;15.00;99.90
4985;DHT22;2509;49.902;8.600;2023-08-07T09:43:47;15.00;99.90
4985;DHT22;2509;49.902;8.600;2023-08-07T09:46:48;15.00;99.90
4985;DHT22;2509;49.902;8.600;2023-08-07T09:49:50;14.90;99.90
4985;DHT22;2509;49.902;8.600;2023-08-07T09:52:55;14.90;99.90
4985;DHT22;2509;49.902;8.600;2023-08-07T09:55:58;14.80;99.90
4985;DHT22;2509;49.902;8.600;2023-08-07T09:59:01;14.70;99.90
4985;DHT22;2509;49.902;8.600;2023-08-07T10:02:03;14.50;99.90
4985;DHT22;2509;49.902;8.600;2023-08-07T10:05:04;14.40;99.90
4985;DHT22;2509;49.902;8.600;2023-08-07T10:08:08;14.30;99.90
4985;DHT22;2509;49.902;8.600;2023-08-07T10:11:11;14.30;99.90
4985;DHT22;2509;49.902;8.600;2023-08-07T10:14:16;14.40;99.90
4985;DHT22;2509;49.902;8.600;2023-08-07T10:17:17;14.40;99.90
4985;DHT22;2509;49.902;8.600;2023-08-07T10:20:20;14.50;99.90
4985;DHT22;2509;49.902;8.600;2023-08-07T10:23:22;14.50;99.90
4985;DHT22;2509;49.902;8.600;2023-08-07T10:26:24;14.40;99.90
4985;DHT22;2509;49.902;8.600;2023-08-07T10:29:28;14.40;99.90
4985;DHT22;2509;49.902;8.600;2023-08-07T10:32:30;14.30;99.90
4985;DHT22;2509;49.902;8.600;2023-08-07T10:35:32;14.30;99.90
4985;DHT22;2509;49.902;8.600;2023-08-07T10:38:34;14.40;99.90
4985;DHT22;2509;49.902;8.600;2023-08-07T10:42:21;14.40;99.90
4985;DHT22;2509;49.902;8.600;2023-08-07T10:45:23;14.40;99.90
4985;DHT22;2509;49.902;8.600;2023-08-07T10:48:24;14.50;99.90
4985;DHT22;2509;49.902;8.600;2023-08-07T10:51:28;14.60;99.90
4985;DHT22;2509;49.902;8.600;2023-08-07T10:54:30;14.70;99.90
4985;DHT22;2509;49.902;8.600;2023-08-07T10:57:33;14.80;99.90
4985;DHT22;2509;49.902;8.600;2023-08-07T11:00:34;14.80;99.90
4985;DHT22;2509;49.902;8.600;2023-08-07T11:03:36;14.90;99.90
4985;DHT22;2509;49.902;8.600;2023-08-07T11:06:38;15.00;99.90
4985;DHT22;2509;49.902;8.600;2023-08-07T11:09:40;15.10;99.90
4985;DHT22;2509;49.902;8.600;2023-08-07T11:12:44;15.20;99.90
4985;DHT22;2509;49.902;8.600;2023-08-07T11:15:46;15.20;99.90
4985;DHT22;2509;49.902;8.600;2023-08-07T11:18:48;15.20;99.90
4985;DHT22;2509;49.902;8.600;2023-08-07T11:21:50;15.20;99.90
4985;DHT22;2509;49.902;8.600;2023-08-07T11:24:52;15.20;99.90
4985;DHT22;2509;49.902;8.600;2023-08-07T11:27:56;15.20;99.90
4985;DHT22;2509;49.902;8.600;2023-08-07T11:30:57;15.20;99.90
4985;DHT22;2509;49.902;8.600;2023-08-07T11:33:59;15.10;99.90
4985;DHT22;2509;49.902;8.600;2023-08-07T11:37:03;15.20;99.90
4985;DHT22;2509;49.902;8.600;2023-08-07T11:40:05;15.30;99.90
4985;DHT22;2509;49.902;8.600;2023-08-07T11:43:08;15.30;99.90
4985;DHT22;2509;49.902;8.600;2023-08-07T11:46:10;15.30;99.90
4985;DHT22;2509;49.902;8.600;2023-08-07T11:49:12;15.30;99.90
4985;DHT22;2509;49.902;8.600;2023-08-07T11:52:14;15.40;99.90
4985;DHT22;2509;49.902;8.600;2023-08-07T11:55:17;15.50;99.90
4985;DHT22;2509;49.902;8.600;2023-08-07T11:58:20;15.60;99.90
4985;DHT22;2509;49.902;8.600;2023-08-07T12:01:22;15.70;99.90
4985;DHT22;2509;49.902;8.600;2023-08-07T12:04:24;15.60;99.90
4985;DHT22;2509;49.902;8.600;2023-08-07T12:07:26;15.60;99.90
4985;DHT22;2509;49.902;8.600;2023-08-07T12:10:28;15.60;99.90
4985;DHT22;2509;49.902;8.600;2023-08-07T12:13:31;15.60;99.90
4985;DHT22;2509;49.902;8.600;2023-08-07T12:16:35;15.60;99.90
4985;DHT22;2509;49.902;8.600;2023-08-07T12:19:37;15.70;99.90
4985;DHT22;2509;49.902;8.600;2023-08-07T12:22:40;15.70;99.90
4985;DHT22;2509;49.902;8.600;2023-08-07T12:25:44;15.70;99.90
4985;DHT22;2509;49.902;8.600;2023-08-07T12:28:47;15.70;99.90
4985;DHT22;2509;49.902;8.600;2023-08-07T12:31:49;15.70;99.90
4985;DHT22;2509;49.902;8.600;2023-08-07T12:34:51;15.70;99.90
4985;DHT22;2509;49.902;8.600;2023-08-07T12:37:54;15.70;99.90
4985;DHT22;2509;49.902;8.600;2023-08-07T12:40:55;15.80;99.90
4985;DHT22;2509;49.902;8.600;2023-08-07T12:43:58;15.90;99.90
4985;DHT22;2509;49.902;8.600;2023-08-07T12:47:01;16.10;99.90
4985;DHT22;2509;49.902;8.600;2023-08-07T12:50:03;16.30;99.90
4985;DHT22;2509;49.902;8.600;2023-08-07T12:53:07;16.50;99.90
4985;DHT22;2509;49.902;8.600;2023-08-07T12:56:09;16.80;99.90
4985;DHT22;2509;49.902;8.600;2023-08-07T12:59:12;16.90;99.90
4985;DHT22;2509;49.902;8.600;2023-08-07T13:02:13;16.90;99.90
4985;DHT22;2509;49.902;8.600;2023-08-07T13:05:15;16.90;99.90
4985;DHT22;2509;49.902;8.600;2023-08-07T13:08:18;16.80;99.90
4985;DHT22;2509;49.902;8.600;2023-08-07T13:11:20;16.80;99.90
4985;DHT22;2509;49.902;8.600;2023-08-07T13:14:23;16.90;99.90
4985;DHT22;2509;49.902;8.600;2023-08-07T13:17:24;17.10;99.90
4985;DHT22;2509;49.902;8.600;2023-08-07T13:20:26;17.40;99.90
4985;DHT22;2509;49.902;8.600;2023-08-07T13:23:28;17.60;99.90
4985;DHT22;2509;49.902;8.600;2023-08-07T13:26:29;17.90;99.90
4985;DHT22;2509;49.902;8.600;2023-08-07T13:29:32;18.10;99.90
4985;DHT22;2509;49.902;8.600;2023-08-07T13:32:34;18.50;99.90
4985;DHT22;2509;49.902;8.600;2023-08-07T13:35:36;19.60;99.90
4985;DHT22;2509;49.902;8.600;2023-08-07T13:38:38;20.50;99.90
4985;DHT22;2509;49.902;8.600;2023-08-07T13:41:39;21.60;99.90
4985;DHT22;2509;49.902;8.600;2023-08-07T13:44:42;22.00;99.90
4985;DHT22;2509;49.902;8.600;2023-08-07T13:47:44;21.70;99.90
4985;DHT22;2509;49.902;8.600;2023-08-07T13:50:46;21.10;99.90
4985;DHT22;2509;49.902;8.600;2023-08-07T13:53:48;20.60;99.90
4985;DHT22;2509;49.902;8.600;2023-08-07T13:56:51;20.20;99.90
4985;DHT22;2509;49.902;8.600;2023-08-07T13:59:54;19.90;99.90
4985;DHT22;2509;49.902;8.600;2023-08-07T14:02:56;19.70;99.90
4985;DHT22;2509;49.902;8.600;2023-08-07T14:05:57;19.80;99.90
4985;DHT22;2509;49.902;8.600;2023-08-07T14:08:59;20.50;99.90
4985;DHT22;2509;49.902;8.600;2023-08-07T14:12:01;22.00;99.90
4985;DHT22;2509;49.902;8.600;2023-08-07T14:15:04;23.30;99.90
4985;DHT22;2509;49.902;8.600;2023-08-07T14:18:06;24.50;99.90
4985;DHT22;2509;49.902;8.600;2023-08-07T14:21:07;25.70;99.90
4985;DHT22;2509;49.902;8.600;2023-08-07T14:24:09;26.50;99.90
4985;DHT22;2509;49.902;8.600;2023-08-07T14:27:10;25.90;99.90
4985;DHT22;2509;49.902;8.600;2023-08-07T14:30:13;25.50;99.90
4985;DHT22;2509;49.902;8.600;2023-08-07T14:33:15;26.00;98.60
4985;DHT22;2509;49.902;8.600;2023-08-07T14:36:17;25.80;96.30
4985;DHT22;2509;49.902;8.600;2023-08-07T14:39:19;26.40;97.10
4985;DHT22;2509;49.902;8.600;2023-08-07T14:42:21;27.00;95.00
4985;DHT22;2509;49.902;8.600;2023-08-07T14:45:23;27.90;94.00
4985;DHT22;2509;49.902;8.600;2023-08-07T14:48:25;28.00;89.20
4985;DHT22;2509;49.902;8.600;2023-08-07T14:51:27;28.30;88.10
4985;DHT22;2509;49.902;8.600;2023-08-07T14:54:28;28.50;88.20
4985;DHT22;2509;49.902;8.600;2023-08-07T14:57:30;28.20;86.50
4985;DHT22;2509;49.902;8.600;2023-08-07T15:00:33;26.50;87.90
4985;DHT22;2509;49.902;8.600;2023-08-07T15:03:36;26.70;92.80
4985;DHT22;2509;49.902;8.600;2023-08-07T15:06:37;26.90;91.10
4985;DHT22;2509;49.902;8.600;2023-08-07T15:09:39;26.70;92.20
4985;DHT22;2509;49.902;8.600;2023-08-07T15:12:41;26.30;90.70
4985;DHT22;2509;49.902;8.600;2023-08-07T15:15:44;24.90;91.30
4985;DHT22;2509;49.902;8.600;2023-08-07T15:18:45;23.90;99.20
4985;DHT22;2509;49.902;8.600;2023-08-07T15:21:47;23.40;98.50
4985;DHT22;2509;49.902;8.600;2023-08-07T15:24:51;23.20;99.90
4985;DHT22;2509;49.902;8.600;2023-08-07T15:27:52;23.60;93.80
4985;DHT22;2509;49.902;8.600;2023-08-07T15:30:56;23.70;95.60
4985;DHT22;2509;49.902;8.600;2023-08-07T15:33:58;23.50;95.00
4985;DHT22;2509;49.902;8.600;2023-08-07T15:36:59;23.20;96.90
4985;DHT22;2509;49.902;8.600;2023-08-07T15:40:01;22.70;99.20
4985;DHT22;2509;49.902;8.600;2023-08-07T15:43:03;22.20;99.90
4985;DHT22;2509;49.902;8.600;2023-08-07T15:46:06;22.20;99.90
4985;DHT22;2509;49.902;8.600;2023-08-07T15:49:08;23.40;99.20
4985;DHT22;2509;49.902;8.600;2023-08-07T15:52:10;23.80;97.20
4985;DHT22;2509;49.902;8.600;2023-08-07T15:55:11;23.90;95.30
4985;DHT22;2509;49.902;8.600;2023-08-07T15:58:13;24.10;94.20
4985;DHT22;2509;49.902;8.600;2023-08-07T16:01:16;24.30;95.90
4985;DHT22;2509;49.902;8.600;2023-08-07T16:04:17;24.30;95.30
4985;DHT22;2509;49.902;8.600;2023-08-07T16:07:19;24.60;95.00
4985;DHT22;2509;49.902;8.600;2023-08-07T16:10:21;24.80;92.10
4985;DHT22;2509;49.902;8.600;2023-08-07T16:13:22;24.80;92.20
4985;DHT22;2509;49.902;8.600;2023-08-07T16:16:25;25.10;94.50
4985;DHT22;2509;49.902;8.600;2023-08-07T16:19:27;25.30;93.90
4985;DHT22;2509;49.902;8.600;2023-08-07T16:22:28;25.10;90.50
4985;DHT22;2509;49.902;8.600;2023-08-07T16:25:30;24.40;90.40
4985;DHT22;2509;49.902;8.600;2023-08-07T16:28:31;24.00;91.60
4985;DHT22;2509;49.902;8.600;2023-08-07T16:31:34;23.80;93.60
4985;DHT22;2509;49.902;8.600;2023-08-07T16:34:36;23.70;93.30
4985;DHT22;2509;49.902;8.600;2023-08-07T16:37:37;23.70;92.60
4985;DHT22;2509;49.902;8.600;2023-08-07T16:40:39;23.50;92.60
4985;DHT22;2509;49.902;8.600;2023-08-07T16:43:41;23.30;94.70
4985;DHT22;2509;49.902;8.600;2023-08-07T16:46:44;23.00;95.10
4985;DHT22;2509;49.902;8.600;2023-08-07T16:49:46;22.70;94.00
4985;DHT22;2509;49.902;8.600;2023-08-07T16:52:48;22.60;95.90
4985;DHT22;2509;49.902;8.600;2023-08-07T16:55:49;22.60;96.00
4985;DHT22;2509;49.902;8.600;2023-08-07T16:58:51;22.40;96.30
4985;DHT22;2509;49.902;8.600;2023-08-07T17:01:54;22.30;97.00
4985;DHT22;2509;49.902;8.600;2023-08-07T17:04:55;22.10;96.40
4985;DHT22;2509;49.902;8.600;2023-08-07T17:07:57;21.90;96.30
4985;DHT22;2509;49.902;8.600;2023-08-07T17:10:59;21.70;98.10
4985;DHT22;2509;49.902;8.600;2023-08-07T17:14:00;21.70;99.70
4985;DHT22;2509;49.902;8.600;2023-08-07T17:17:03;21.60;99.90
4985;DHT22;2509;49.902;8.600;2023-08-07T17:20:05;21.60;99.90
4985;DHT22;2509;49.902;8.600;2023-08-07T17:23:07;21.60;99.80
4985;DHT22;2509;49.902;8.600;2023-08-07T17:26:09;21.60;99.50
4985;DHT22;2509;49.902;8.600;2023-08-07T17:29:11;21.50;99.50
4985;DHT22;2509;49.902;8.600;2023-08-07T17:32:14;21.30;98.10
4985;DHT22;2509;49.902;8.600;2023-08-07T17:35:15;21.00;97.50
4985;DHT22;2509;49.902;8.600;2023-08-07T17:38:17;20.90;96.50
4985;DHT22;2509;49.902;8.600;2023-08-07T17:41:19;20.80;97.90
4985;DHT22;2509;49.902;8.600;2023-08-07T17:44:22;20.70;98.20
4985;DHT22;2509;49.902;8.600;2023-08-07T17:47:25;20.60;97.30
4985;DHT22;2509;49.902;8.600;2023-08-07T17:50:26;20.50;97.80
4985;DHT22;2509;49.902;8.600;2023-08-07T17:53:28;20.30;99.50
4985;DHT22;2509;49.902;8.600;2023-08-07T17:56:29;20.20;99.90
4985;DHT22;2509;49.902;8.600;2023-08-07T17:59:33;20.10;99.90
4985;DHT22;2509;49.902;8.600;2023-08-07T18:02:36;19.90;99.90
4985;DHT22;2509;49.902;8.600;2023-08-07T18:05:38;19.80;99.90
4985;DHT22;2509;49.902;8.600;2023-08-07T18:08:39;19.80;99.90
4985;DHT22;2509;49.902;8.600;2023-08-07T18:11:41;19.70;99.90
4985;DHT22;2509;49.902;8.600;2023-08-07T18:14:43;19.60;99.90
4985;DHT22;2509;49.902;8.600;2023-08-07T18:17:46;19.50;99.90
4985;DHT22;2509;49.902;8.600;2023-08-07T18:20:47;19.40;99.90
4985;DHT22;2509;49.902;8.600;2023-08-07T18:23:49;19.40;99.90
4985;DHT22;2509;49.902;8.600;2023-08-07T18:26:51;19.30;99.90
4985;DHT22;2509;49.902;8.600;2023-08-07T18:29:52;19.30;99.90
4985;DHT22;2509;49.902;8.600;2023-08-07T18:32:55;19.20;99.90
4985;DHT22;2509;49.902;8.600;2023-08-07T18:35:57;19.20;99.90
4985;DHT22;2509;49.902;8.600;2023-08-07T18:39:00;19.10;99.90
4985;DHT22;2509;49.902;8.600;2023-08-07T18:42:01;19.00;99.90
4985;DHT22;2509;49.902;8.600;2023-08-07T18:45:03;18.90;99.90
4985;DHT22;2509;49.902;8.600;2023-08-07T18:48:07;18.80;99.90
4985;DHT22;2509;49.902;8.600;2023-08-07T18:51:09;18.60;99.90
4985;DHT22;2509;49.902;8.600;2023-08-07T18:54:10;18.50;99.90
4985;DHT22;2509;49.902;8.600;2023-08-07T18:57:12;18.40;99.90
4985;DHT22;2509;49.902;8.600;2023-08-07T19:00:14;18.30;99.90
4985;DHT22;2509;49.902;8.600;2023-08-07T19:03:17;18.20;99.90
4985;DHT22;2509;49.902;8.600;2023-08-07T19:06:19;18.10;99.90
4985;DHT22;2509;49.902;8.600;2023-08-07T19:09:20;18.00;99.90
4985;DHT22;2509;49.902;8.600;2023-08-07T19:12:22;17.90;99.90
4985;DHT22;2509;49.902;8.600;2023-08-07T19:15:23;17.80;99.90
4985;DHT22;2509;49.902;8.600;2023-08-07T19:18:26;17.70;99.90
4985;DHT22;2509;49.902;8.600;2023-08-07T19:21:28;17.60;99.90
4985;DHT22;2509;49.902;8.600;2023-08-07T19:24:29;17.60;99.90
4985;DHT22;2509;49.902;8.600;2023-08-07T19:27:31;17.50;99.90
4985;DHT22;2509;49.902;8.600;2023-08-07T19:30:32;17.40;99.90
4985;DHT22;2509;49.902;8.600;2023-08-07T19:33:35;17.30;99.90
4985;DHT22;2509;49.902;8.600;2023-08-07T19:36:37;17.30;99.90
4985;DHT22;2509;49.902;8.600;2023-08-07T19:39:39;17.20;99.90
4985;DHT22;2509;49.902;8.600;2023-08-07T19:42:40;17.20;99.90
4985;DHT22;2509;49.902;8.600;2023-08-07T19:45:42;17.20;99.90
4985;DHT22;2509;49.902;8.600;2023-08-07T19:48:45;17.10;99.90